createdAt,value
2023-05-13T00:00:18.109Z,1.20
2023-05-13T00:02:45.877Z,1.20
2023-05-13T00:05:13.461Z,1.20
2023-05-13T00:07:41.554Z,1.23
2023-05-13T00:10:10.183Z,1.30
2023-05-13T00:12:37.863Z,1.40
2023-05-13T00:15:07.718Z,1.48
2023-05-13T00:17:35.325Z,1.60
2023-05-13T00:20:02.923Z,1.45
2023-05-13T00:22:30.649Z,1.73
2023-05-13T00:24:58.226Z,1.40
2023-05-13T00:27:25.783Z,1.58
2023-05-13T00:29:53.674Z,1.50
2023-05-13T00:32:22.625Z,1.92
2023-05-13T00:34:50.651Z,1.60
2023-05-13T00:37:18.482Z,1.65
2023-05-13T00:39:46.114Z,1.42
2023-05-13T00:42:13.733Z,1.40
2023-05-13T00:44:41.723Z,1.40
2023-05-13T00:47:12.152Z,1.30
2023-05-13T00:49:41.174Z,1.33
2023-05-13T00:52:08.917Z,1.35
2023-05-13T00:54:36.637Z,1.67
2023-05-13T00:57:04.475Z,1.38
2023-05-13T00:59:32.559Z,1.60
2023-05-13T01:02:08.575Z,1.52
2023-05-13T01:04:45.931Z,1.20
2023-05-13T01:07:23.897Z,1.35
2023-05-13T01:09:57.808Z,1.35
2023-05-13T01:12:32.101Z,1.40
2023-05-13T01:15:05.690Z,1.90
2023-05-13T01:17:36.826Z,1.50
2023-05-13T01:20:07.378Z,1.58
2023-05-13T01:22:36.264Z,1.52
2023-05-13T01:25:03.905Z,1.38
2023-05-13T01:27:31.806Z,1.27
2023-05-13T01:30:01.823Z,1.90
2023-05-13T01:32:32.631Z,1.60
2023-05-13T01:35:01.608Z,2.22
2023-05-13T01:37:31.096Z,1.77
2023-05-13T01:40:00.735Z,1.77
2023-05-13T01:42:30.757Z,1.35
2023-05-13T01:44:58.856Z,1.35
2023-05-13T01:47:26.564Z,1.40
2023-05-13T01:49:54.243Z,1.55
2023-05-13T01:52:21.806Z,1.45
2023-05-13T01:54:49.612Z,1.77
2023-05-13T02:01:41.064Z,1.40
2023-05-13T02:04:08.681Z,1.77
2023-05-13T02:06:36.304Z,1.90
2023-05-13T02:09:04.191Z,1.88
2023-05-13T02:11:32.027Z,1.73
2023-05-13T02:13:59.542Z,1.80
2023-05-13T02:16:27.161Z,1.75
2023-05-13T02:18:56.463Z,1.35
2023-05-13T02:21:29.185Z,1.60
2023-05-13T02:23:56.954Z,2.08
2023-05-13T02:26:24.588Z,1.52
2023-05-13T02:28:52.101Z,1.80
2023-05-13T02:31:19.715Z,1.88
2023-05-13T02:33:47.655Z,1.85
2023-05-13T02:36:16.685Z,1.60
2023-05-13T02:38:45.016Z,1.90
2023-05-13T02:41:14.936Z,1.85
2023-05-13T02:43:42.728Z,1.50
2023-05-13T02:46:10.590Z,1.80
2023-05-13T02:48:38.140Z,1.90
2023-05-13T02:51:06.156Z,2.20
2023-05-13T02:53:35.059Z,1.92
2023-05-13T02:56:06.292Z,1.50
2023-05-13T02:58:35.892Z,1.80
2023-05-13T03:01:03.528Z,1.65
2023-05-13T03:03:31.314Z,1.77
2023-05-13T03:05:59.252Z,1.95
2023-05-13T03:08:26.844Z,1.98
2023-05-13T03:10:56.060Z,1.50
2023-05-13T03:13:23.650Z,1.80
2023-05-13T03:15:51.180Z,1.90
2023-05-13T03:18:18.754Z,1.85
2023-05-13T03:20:46.405Z,2.00
2023-05-13T03:23:14.128Z,1.95
2023-05-13T03:25:43.131Z,2.00
2023-05-13T03:28:12.071Z,1.90
2023-05-13T03:30:44.057Z,1.60
2023-05-13T03:33:16.279Z,1.90
2023-05-13T03:35:43.987Z,1.95
2023-05-13T03:38:11.642Z,1.92
2023-05-13T03:40:44.647Z,1.80
2023-05-13T03:43:13.760Z,1.80
2023-05-13T03:45:47.582Z,2.13
2023-05-13T03:48:18.172Z,2.08
2023-05-13T03:50:46.308Z,2.55
2023-05-13T03:53:15.535Z,1.90
2023-05-13T03:55:43.485Z,1.92
2023-05-13T03:58:17.013Z,1.73
2023-05-13T04:00:46.863Z,1.60
2023-05-13T04:03:16.131Z,1.80
2023-05-13T04:05:44.087Z,1.88
2023-05-13T04:08:12.879Z,1.95
2023-05-13T04:10:40.816Z,2.00
2023-05-13T04:13:08.676Z,1.80
2023-05-13T04:15:37.637Z,1.83
2023-05-13T04:18:06.578Z,2.10
2023-05-13T04:20:35.350Z,2.20
2023-05-13T04:23:03.785Z,1.65
2023-05-13T04:25:31.583Z,1.83
2023-05-13T04:27:59.253Z,2.17
2023-05-13T04:30:32.553Z,3.30
2023-05-13T04:33:01.548Z,2.20
2023-05-13T04:35:30.395Z,2.00
2023-05-13T04:38:00.806Z,2.05
2023-05-13T04:40:29.598Z,1.83
2023-05-13T04:43:00.820Z,2.38
2023-05-13T04:45:33.070Z,1.70
2023-05-13T04:48:03.058Z,1.80
2023-05-13T04:50:31.806Z,2.33
2023-05-13T04:53:00.148Z,2.20
2023-05-13T04:55:28.011Z,2.65
2023-05-13T04:57:57.231Z,2.72
2023-05-13T05:00:25.404Z,2.75
2023-05-13T05:02:53.271Z,2.45
2023-05-13T05:05:24.098Z,2.13
2023-05-13T05:07:52.173Z,1.70
2023-05-13T05:10:22.424Z,2.15
2023-05-13T05:12:54.780Z,1.90
2023-05-13T05:15:23.004Z,2.15
2023-05-13T05:17:54.659Z,4.10
2023-05-13T05:20:24.910Z,8.73
2023-05-13T05:22:55.469Z,5.70
2023-05-13T05:25:25.665Z,3.22
2023-05-13T05:27:53.200Z,3.00
2023-05-13T05:30:21.390Z,2.72
2023-05-13T05:32:56.793Z,2.45
2023-05-13T05:35:27.184Z,2.40
2023-05-13T05:37:55.697Z,2.58
2023-05-13T05:40:24.749Z,2.22
2023-05-13T05:42:52.400Z,2.08
2023-05-13T05:45:20.932Z,2.10
2023-05-13T05:47:48.646Z,2.47
2023-05-13T05:50:17.538Z,1.92
2023-05-13T05:52:47.190Z,2.00
2023-05-13T05:55:16.155Z,1.85
2023-05-13T05:57:43.713Z,2.65
2023-05-13T06:00:13.171Z,3.42
2023-05-13T06:02:43.608Z,6.15
2023-05-13T06:05:13.129Z,2.40
2023-05-13T06:07:41.918Z,2.28
2023-05-13T06:10:11.761Z,2.47
2023-05-13T06:12:40.744Z,2.08
2023-05-13T06:15:11.452Z,2.20
2023-05-13T06:17:41.554Z,2.08
2023-05-13T06:20:09.844Z,2.33
2023-05-13T06:22:37.477Z,2.10
2023-05-13T06:25:05.798Z,1.80
2023-05-13T06:27:37.206Z,2.35
2023-05-13T06:30:06.300Z,1.98
2023-05-13T06:32:33.970Z,1.88
2023-05-13T06:35:01.903Z,1.75
2023-05-13T06:37:29.567Z,1.95
2023-05-13T06:39:58.138Z,1.52
2023-05-13T06:42:25.811Z,1.50
2023-05-13T06:45:01.638Z,1.70
2023-05-13T06:47:30.775Z,1.95
2023-05-13T06:49:58.388Z,2.50
2023-05-13T06:52:26.440Z,2.20
2023-05-13T06:54:53.982Z,1.90
2023-05-13T06:57:25.193Z,1.67
2023-05-13T07:00:01.838Z,1.65
2023-05-13T07:02:29.432Z,1.88
2023-05-13T07:04:56.947Z,1.63
2023-05-13T07:07:24.560Z,1.65
2023-05-13T07:09:52.083Z,1.40
2023-05-13T07:12:19.662Z,1.50
2023-05-13T07:14:47.248Z,1.90
2023-05-13T07:17:16.186Z,1.40
2023-05-13T07:19:43.712Z,1.60
2023-05-13T07:22:11.339Z,1.48
2023-05-13T07:24:38.910Z,1.60
2023-05-13T07:27:06.879Z,1.75
2023-05-13T07:29:34.492Z,1.60
2023-05-13T07:32:05.162Z,1.50
2023-05-13T07:34:34.094Z,1.48
2023-05-13T07:37:01.702Z,1.95
2023-05-13T07:39:29.965Z,1.52
2023-05-13T07:41:57.536Z,1.55
2023-05-13T07:44:25.899Z,1.80
2023-05-13T07:46:53.706Z,1.50
2023-05-13T07:49:21.647Z,1.77
2023-05-13T07:51:50.709Z,1.42
2023-05-13T07:54:18.383Z,1.30
2023-05-13T07:56:47.882Z,1.70
2023-05-13T07:59:15.488Z,1.50
2023-05-13T08:01:43.429Z,2.35
2023-05-13T08:04:11.516Z,1.30
2023-05-13T08:06:40.184Z,1.20
2023-05-13T08:09:12.184Z,1.48
2023-05-13T08:11:40.152Z,1.60
2023-05-13T08:14:07.901Z,1.90
2023-05-13T08:16:35.953Z,1.58
2023-05-13T08:19:03.803Z,1.90
2023-05-13T08:21:31.729Z,1.90
2023-05-13T08:23:59.420Z,1.65
2023-05-13T08:26:28.729Z,1.67
2023-05-13T08:28:57.104Z,1.55
2023-05-13T08:31:25.186Z,1.48
2023-05-13T08:33:53.339Z,1.50
2023-05-13T08:36:21.812Z,2.20
2023-05-13T08:38:49.612Z,3.05
2023-05-13T08:41:18.121Z,2.17
2023-05-13T08:43:49.529Z,1.70
2023-05-13T08:46:19.524Z,1.90
2023-05-13T08:48:48.860Z,2.30
2023-05-13T08:51:16.464Z,1.85
2023-05-13T08:53:45.310Z,1.83
2023-05-13T08:56:13.168Z,1.45
2023-05-13T08:58:40.830Z,1.45
2023-05-13T09:01:09.912Z,1.35
2023-05-13T09:03:48.485Z,1.60
2023-05-13T09:06:16.322Z,2.28
2023-05-13T09:08:44.251Z,1.45
2023-05-13T09:11:12.068Z,1.30
2023-05-13T09:13:40.366Z,1.50
2023-05-13T09:16:09.905Z,4.75
2023-05-13T09:18:37.551Z,1.92
2023-05-13T09:21:24.409Z,1.70
2023-05-13T09:23:57.201Z,1.27
2023-05-13T09:26:28.732Z,1.30
2023-05-13T09:29:18.618Z,1.38
2023-05-13T09:31:50.090Z,1.45
2023-05-13T09:34:26.222Z,1.17
2023-05-13T09:36:58.317Z,1.90
2023-05-13T09:39:26.061Z,1.92
2023-05-13T09:41:53.762Z,1.20
2023-05-13T09:44:22.383Z,1.40
2023-05-13T09:46:52.091Z,1.10
2023-05-13T09:49:20.109Z,1.20
2023-05-13T09:51:47.652Z,1.60
2023-05-13T09:54:15.369Z,0.93
2023-05-13T09:56:42.961Z,1.00
2023-05-13T09:59:10.566Z,1.05
2023-05-13T10:01:40.078Z,1.00
2023-05-13T10:04:09.335Z,1.10
2023-05-13T10:06:38.719Z,1.20
2023-05-13T10:09:10.252Z,1.40
2023-05-13T10:11:38.227Z,1.00
2023-05-13T10:14:07.354Z,1.25
2023-05-13T10:16:35.022Z,1.30
2023-05-13T10:19:04.071Z,1.75
2023-05-13T10:21:33.444Z,1.08
2023-05-13T10:24:01.867Z,0.77
2023-05-13T10:26:30.517Z,0.88
2023-05-13T10:28:58.679Z,1.17
2023-05-13T10:31:27.727Z,1.20
2023-05-13T10:33:55.407Z,1.65
2023-05-13T10:37:01.784Z,1.30
2023-05-13T10:39:54.060Z,1.13
2023-05-13T10:42:40.546Z,1.75
2023-05-13T10:45:09.136Z,1.20
2023-05-13T10:47:37.619Z,2.10
2023-05-13T10:50:23.025Z,0.70
2023-05-13T10:52:56.730Z,1.15
2023-05-13T10:55:24.454Z,1.00
2023-05-13T10:58:10.915Z,1.00
2023-05-13T11:00:40.268Z,1.48
2023-05-13T11:03:16.641Z,1.30
2023-05-13T11:05:47.990Z,1.80
2023-05-13T11:08:42.129Z,2.83
2023-05-13T11:11:20.376Z,1.40
2023-05-13T11:13:50.736Z,0.88
2023-05-13T11:16:19.487Z,0.80
2023-05-13T11:18:47.520Z,0.90
2023-05-13T11:21:15.080Z,0.70
2023-05-13T11:23:56.832Z,0.90
2023-05-13T11:26:24.659Z,0.80
2023-05-13T11:29:11.023Z,1.02
2023-05-13T11:31:47.218Z,1.17
2023-05-13T11:34:16.469Z,1.20
2023-05-13T11:36:46.295Z,0.90
2023-05-13T11:39:16.958Z,1.00
2023-05-13T11:41:47.049Z,0.80
2023-05-13T11:44:16.502Z,1.55
2023-05-13T11:46:54.176Z,1.25
2023-05-13T11:49:38.842Z,1.92
2023-05-13T11:52:08.949Z,6.90
2023-05-13T11:54:47.241Z,2.33
2023-05-13T11:57:26.297Z,2.17
2023-05-13T11:59:56.764Z,2.03
2023-05-13T12:02:25.222Z,2.47
2023-05-13T12:04:53.442Z,1.20
2023-05-13T12:07:22.728Z,3.60
2023-05-13T12:09:52.277Z,4.93
2023-05-13T12:12:21.210Z,2.20
2023-05-13T12:14:50.547Z,0.98
2023-05-13T12:17:18.953Z,1.40
2023-05-13T12:20:06.324Z,1.20
2023-05-13T12:22:34.031Z,1.23
2023-05-13T12:25:23.923Z,1.35
2023-05-13T12:27:53.017Z,0.90
2023-05-13T12:30:20.932Z,1.40
2023-05-13T12:32:48.484Z,2.97
2023-05-13T12:35:16.408Z,1.65
2023-05-13T12:37:44.038Z,2.47
2023-05-13T12:40:14.367Z,2.92
2023-05-13T12:42:45.314Z,2.45
2023-05-13T12:45:13.489Z,2.42
2023-05-13T12:47:50.467Z,1.00
2023-05-13T12:50:18.102Z,1.75
2023-05-13T12:52:45.721Z,2.40
2023-05-13T12:55:14.800Z,1.35
2023-05-13T12:57:43.059Z,1.10
2023-05-13T13:00:12.567Z,1.13
2023-05-13T13:02:41.960Z,1.17
2023-05-13T13:05:10.167Z,1.30
2023-05-13T13:07:38.038Z,1.17
2023-05-13T13:10:07.053Z,1.85
2023-05-13T13:12:36.202Z,1.40
2023-05-13T13:15:03.961Z,1.00
2023-05-13T13:17:31.513Z,1.25
2023-05-13T13:19:59.037Z,1.30
2023-05-13T13:22:27.108Z,2.20
2023-05-13T13:24:54.828Z,1.30
2023-05-13T13:27:22.393Z,1.27
2023-05-13T13:29:51.327Z,1.20
2023-05-13T13:32:18.897Z,1.30
2023-05-13T13:34:46.574Z,1.10
2023-05-13T13:37:14.122Z,1.60
2023-05-13T13:39:42.099Z,0.98
2023-05-13T13:42:09.750Z,1.08
2023-05-13T13:44:39.367Z,1.15
2023-05-13T13:47:08.306Z,1.38
2023-05-13T13:49:35.819Z,1.10
2023-05-13T13:52:03.376Z,0.90
2023-05-13T13:54:31.012Z,1.08
2023-05-13T13:56:58.746Z,1.08
2023-05-13T13:59:26.312Z,1.52
2023-05-13T14:01:54.221Z,2.13
2023-05-13T14:04:23.890Z,1.60
2023-05-13T14:06:51.987Z,1.52
2023-05-13T14:09:19.699Z,1.05
2023-05-13T14:11:47.348Z,1.00
2023-05-13T14:14:14.905Z,0.68
2023-05-13T14:16:45.351Z,0.90
2023-05-13T14:19:13.106Z,1.00
2023-05-13T14:21:42.066Z,0.90
2023-05-13T14:24:11.816Z,1.00
2023-05-13T14:26:39.732Z,1.10
2023-05-13T14:29:07.299Z,0.98
2023-05-13T14:31:34.889Z,0.70
2023-05-13T14:34:02.472Z,0.70
2023-05-13T14:36:30.045Z,0.68
2023-05-13T14:38:59.215Z,0.80
2023-05-13T14:41:27.079Z,0.80
2023-05-13T14:43:54.625Z,0.90
2023-05-13T14:46:22.589Z,0.90
2023-05-13T14:48:50.141Z,0.75
2023-05-13T14:51:17.880Z,0.80
2023-05-13T14:53:45.444Z,0.80
2023-05-13T14:56:14.377Z,0.88
2023-05-13T14:58:42.224Z,0.60
2023-05-13T15:01:09.849Z,0.60
2023-05-13T15:03:37.876Z,0.60
2023-05-13T15:06:06.301Z,0.88
2023-05-13T15:08:33.900Z,0.68
2023-05-13T15:11:01.535Z,1.10
2023-05-13T15:13:35.004Z,0.60
2023-05-13T15:16:03.465Z,0.63
2023-05-13T15:18:31.382Z,0.80
2023-05-13T15:20:59.077Z,0.40
2023-05-13T15:23:26.700Z,0.70
2023-05-13T15:25:54.273Z,0.50
2023-05-13T15:28:21.856Z,0.40
2023-05-13T15:30:51.024Z,0.50
2023-05-13T15:33:18.708Z,0.70
2023-05-13T15:35:46.353Z,0.70
2023-05-13T15:38:13.870Z,0.63
2023-05-13T15:40:41.486Z,0.90
2023-05-13T15:43:09.067Z,0.70
2023-05-13T15:45:36.607Z,0.88
2023-05-13T15:48:06.387Z,0.80
2023-05-13T15:50:34.198Z,0.60
2023-05-13T15:53:01.798Z,1.00
2023-05-13T15:55:30.286Z,1.02
2023-05-13T15:57:57.807Z,0.77
2023-05-13T16:00:25.565Z,0.75
2023-05-13T16:02:53.398Z,1.02
2023-05-13T16:05:22.595Z,0.77
2023-05-13T16:07:50.168Z,0.70
2023-05-13T16:10:17.732Z,0.82
2023-05-13T16:12:45.531Z,0.90
2023-05-13T16:15:13.219Z,0.90
2023-05-13T16:17:40.820Z,0.95
2023-05-13T16:20:11.519Z,0.80
2023-05-13T16:22:40.796Z,1.00
2023-05-13T16:25:10.444Z,1.48
2023-05-13T16:27:39.191Z,1.15
2023-05-13T16:30:08.390Z,1.17
2023-05-13T16:32:36.038Z,1.00
2023-05-13T16:35:04.089Z,1.23
2023-05-13T16:37:34.402Z,1.55
2023-05-13T16:40:03.739Z,1.17
2023-05-13T16:42:31.262Z,0.90
2023-05-13T16:44:58.844Z,1.13
2023-05-13T16:47:26.458Z,1.30
2023-05-13T16:49:56.025Z,1.10
2023-05-13T16:52:23.681Z,1.10
2023-05-13T16:54:51.389Z,0.90
2023-05-13T16:57:22.210Z,1.20
2023-05-13T16:59:49.855Z,1.30
2023-05-13T17:02:17.466Z,1.40
2023-05-13T17:04:45.072Z,0.93
2023-05-13T17:07:13.019Z,1.17
2023-05-13T17:09:40.587Z,1.40
2023-05-13T17:12:08.794Z,1.25
2023-05-13T17:14:37.644Z,1.27
2023-05-13T17:17:05.574Z,1.30
2023-05-13T17:19:33.235Z,1.23
2023-05-13T17:22:00.799Z,1.55
2023-05-13T17:24:29.254Z,1.60
2023-05-13T17:26:56.976Z,1.70
2023-05-13T17:29:25.780Z,1.60
2023-05-13T17:31:54.998Z,1.52
2023-05-13T17:34:22.595Z,1.35
2023-05-13T17:36:50.378Z,1.70
2023-05-13T17:39:18.057Z,2.00
2023-05-13T17:41:45.953Z,1.75
2023-05-13T17:44:13.513Z,1.83
2023-05-13T17:46:41.020Z,2.22
2023-05-13T17:49:10.011Z,2.22
2023-05-13T17:51:37.637Z,1.90
2023-05-13T17:54:05.375Z,1.77
2023-05-13T17:56:32.986Z,1.40
2023-05-13T17:59:00.521Z,2.25
2023-05-13T18:01:28.069Z,1.85
2023-05-13T18:03:56.253Z,1.58
2023-05-13T18:06:25.374Z,1.70
2023-05-13T18:08:52.956Z,1.88
2023-05-13T18:11:21.896Z,1.48
2023-05-13T18:13:49.457Z,1.50
2023-05-13T18:16:19.450Z,1.60
2023-05-13T18:18:48.527Z,1.60
2023-05-13T18:21:16.151Z,1.50
2023-05-13T18:23:46.451Z,1.63
2023-05-13T18:26:14.068Z,1.27
2023-05-13T18:28:44.677Z,1.60
2023-05-13T18:31:12.493Z,1.67
2023-05-13T18:33:40.084Z,1.70
2023-05-13T18:36:09.997Z,1.73
2023-05-13T18:38:38.398Z,1.88
2023-05-13T18:41:07.383Z,1.40
2023-05-13T18:43:35.008Z,1.95
2023-05-13T18:46:02.606Z,2.83
2023-05-13T18:48:30.163Z,2.50
2023-05-13T18:50:57.727Z,2.03
2023-05-13T18:53:25.245Z,2.50
2023-05-13T18:55:52.819Z,3.42
2023-05-13T18:58:21.700Z,2.00
2023-05-13T19:00:49.375Z,2.78
2023-05-13T19:03:17.068Z,3.03
2023-05-13T19:05:46.082Z,2.47
2023-05-13T19:08:13.711Z,2.30
2023-05-13T19:10:41.300Z,2.22
2023-05-13T19:13:09.298Z,2.50
2023-05-13T19:15:38.261Z,1.98
2023-05-13T19:18:05.889Z,2.08
2023-05-13T19:20:33.539Z,2.15
2023-05-13T19:23:01.092Z,2.35
2023-05-13T19:25:28.732Z,3.75
2023-05-13T19:27:56.587Z,3.10
2023-05-13T19:30:24.416Z,2.00
2023-05-13T19:32:53.606Z,2.17
2023-05-13T19:35:23.338Z,2.60
2023-05-13T19:37:51.237Z,3.17
2023-05-13T19:40:18.813Z,2.90
2023-05-13T19:42:46.695Z,1.98
2023-05-13T19:45:14.250Z,4.18
2023-05-13T19:47:41.911Z,7.35
2023-05-13T19:50:11.197Z,4.00
2023-05-13T19:52:40.487Z,3.22
2023-05-13T19:55:09.183Z,3.08
2023-05-13T19:57:36.751Z,3.20
2023-05-13T20:00:05.478Z,2.58
2023-05-13T20:02:36.129Z,2.20
2023-05-13T20:05:03.780Z,2.20
2023-05-13T20:07:32.832Z,2.13
2023-05-13T20:10:01.098Z,2.08
2023-05-13T20:12:28.709Z,4.53
2023-05-13T20:14:57.901Z,9.95
2023-05-13T20:17:26.479Z,3.30
2023-05-13T20:19:55.584Z,2.85
2023-05-13T20:22:23.566Z,2.72
2023-05-13T20:24:54.233Z,2.78
2023-05-13T20:27:21.743Z,8.30
2023-05-13T20:29:49.705Z,4.72
2023-05-13T20:32:18.313Z,2.92
2023-05-13T20:34:45.884Z,2.33
2023-05-13T20:37:14.148Z,2.72
2023-05-13T20:39:41.750Z,2.70
2023-05-13T20:42:10.660Z,2.80
2023-05-13T20:44:38.183Z,2.80
2023-05-13T20:47:06.692Z,2.58
2023-05-13T20:49:34.895Z,3.10
2023-05-13T20:52:04.894Z,3.70
2023-05-13T20:54:34.577Z,3.20
2023-05-13T20:57:03.266Z,2.95
2023-05-13T20:59:32.450Z,2.78
2023-05-13T21:01:59.980Z,4.35
2023-05-13T21:04:27.851Z,3.60
2023-05-13T21:06:55.449Z,3.42
2023-05-13T21:09:22.996Z,2.80
2023-05-13T21:11:50.598Z,2.53
2023-05-13T21:14:18.166Z,3.53
2023-05-13T21:16:47.088Z,3.05
2023-05-13T21:19:20.971Z,2.53
2023-05-13T21:21:48.587Z,2.85
2023-05-13T21:24:18.161Z,3.00
2023-05-13T21:26:45.907Z,2.30
2023-05-13T21:29:13.549Z,2.80
2023-05-13T21:31:41.269Z,2.97
2023-05-13T21:34:10.525Z,2.25
2023-05-13T21:36:39.198Z,2.40
2023-05-13T21:39:06.927Z,2.53
2023-05-13T21:41:34.537Z,2.97
2023-05-13T21:44:02.284Z,3.30
2023-05-13T21:46:29.890Z,4.43
2023-05-13T21:48:57.561Z,3.80
2023-05-13T21:51:26.773Z,3.00
2023-05-13T21:53:54.560Z,2.92
2023-05-13T21:56:22.455Z,3.05
2023-05-13T21:58:50.588Z,2.80
2023-05-13T22:01:18.547Z,2.80
2023-05-13T22:03:46.193Z,4.47
2023-05-13T22:06:13.774Z,3.00
2023-05-13T22:08:42.645Z,3.42
2023-05-13T22:11:11.442Z,3.20
2023-05-13T22:13:39.463Z,3.15
2023-05-13T22:16:07.246Z,2.80
2023-05-13T22:18:35.018Z,3.75
2023-05-13T22:21:02.822Z,2.90
2023-05-13T22:23:30.378Z,3.33
2023-05-13T22:25:59.243Z,3.20
2023-05-13T22:28:26.894Z,3.10
2023-05-13T22:30:55.259Z,4.22
2023-05-13T22:33:22.894Z,3.58
2023-05-13T22:35:51.228Z,3.25
2023-05-13T22:38:18.804Z,3.40
2023-05-13T22:40:46.471Z,3.30
2023-05-13T22:43:15.332Z,3.20
2023-05-13T22:45:43.009Z,3.20
2023-05-13T22:48:10.673Z,3.30
2023-05-13T22:50:38.415Z,2.88
2023-05-13T22:53:05.987Z,3.25
2023-05-13T22:55:33.554Z,3.45
2023-05-13T22:58:01.245Z,2.92
2023-05-13T23:00:30.159Z,3.08
2023-05-13T23:02:58.100Z,3.60
2023-05-13T23:05:25.698Z,3.58
2023-05-13T23:07:53.343Z,3.13
2023-05-13T23:10:20.922Z,3.10
2023-05-13T23:12:48.592Z,3.40
2023-05-13T23:15:16.302Z,3.38
2023-05-13T23:17:45.240Z,3.40
2023-05-13T23:20:13.419Z,3.80
2023-05-13T23:22:41.207Z,3.70
2023-05-13T23:25:10.126Z,3.63
2023-05-13T23:27:37.659Z,3.78
2023-05-13T23:30:06.314Z,3.92
2023-05-13T23:32:33.923Z,4.65
2023-05-13T23:35:02.887Z,4.57
2023-05-13T23:37:31.073Z,4.32
2023-05-13T23:39:58.617Z,4.75
2023-05-13T23:42:26.199Z,4.57
2023-05-13T23:44:53.805Z,4.60
2023-05-13T23:47:21.636Z,4.80
2023-05-13T23:49:49.409Z,4.32
2023-05-13T23:52:18.458Z,4.55
2023-05-13T23:54:46.026Z,4.72
2023-05-13T23:57:13.584Z,4.38
2023-05-13T23:59:41.114Z,4.28
